createdAt,value
2023-03-03T00:04:06.259Z,102072.31
2023-03-03T00:09:08.986Z,102073.16
2023-03-03T00:14:23.004Z,102068.97
2023-03-03T00:19:27.114Z,102065.91
2023-03-03T00:24:38.308Z,102076.84
2023-03-03T00:29:45.921Z,102070.47
2023-03-03T00:34:51.076Z,102072.75
2023-03-03T00:39:53.883Z,102070.09
2023-03-03T00:45:00.632Z,102069.31
2023-03-03T00:50:30.566Z,102073.03
2023-03-03T00:55:35.373Z,102062.22
2023-03-03T01:00:39.997Z,102070.06
2023-03-03T01:05:46.229Z,102081.00
2023-03-03T01:10:51.828Z,102072.75
2023-03-03T01:15:55.226Z,102070.25
2023-03-03T01:20:59.518Z,102069.69
2023-03-03T01:26:02.690Z,102056.91
2023-03-03T01:31:06.775Z,102063.84
2023-03-03T01:36:11.605Z,102045.41
2023-03-03T01:41:14.309Z,102038.59
2023-03-03T01:46:44.113Z,102046.41
2023-03-03T01:51:51.958Z,102038.13
2023-03-03T01:57:00.360Z,102033.94
2023-03-03T02:02:03.144Z,102038.19
2023-03-03T02:07:11.007Z,102035.50
2023-03-03T02:12:17.710Z,102030.41
2023-03-03T02:17:21.019Z,102028.47
2023-03-03T02:22:45.209Z,102028.38
2023-03-03T02:27:49.347Z,102027.75
2023-03-03T02:32:52.212Z,102030.88
2023-03-03T02:37:57.848Z,102034.69
2023-03-03T02:43:05.963Z,102036.91
2023-03-03T02:48:08.805Z,102032.81
2023-03-03T02:53:11.572Z,102029.53
2023-03-03T02:58:16.619Z,102029.81
2023-03-03T03:03:19.502Z,102039.72
2023-03-03T03:08:23.239Z,102039.31
2023-03-03T03:13:28.203Z,102040.66
2023-03-03T03:18:31.169Z,102053.66
2023-03-03T03:23:35.688Z,102054.84
2023-03-03T03:28:40.257Z,102048.28
2023-03-03T03:33:43.470Z,102047.56
2023-03-03T03:38:47.389Z,102037.94
2023-03-03T03:43:51.616Z,102040.38
2023-03-03T03:48:54.602Z,102051.03
2023-03-03T03:53:57.940Z,102054.53
2023-03-03T03:59:02.415Z,102048.44
2023-03-03T04:04:05.494Z,102035.31
2023-03-03T04:09:08.806Z,102041.00
2023-03-03T04:14:13.137Z,102032.59
2023-03-03T04:19:15.934Z,102029.69
2023-03-03T04:24:19.761Z,102023.84
2023-03-03T04:29:26.423Z,102020.47
2023-03-03T04:34:29.541Z,102032.94
2023-03-03T04:39:32.681Z,102028.75
2023-03-03T04:44:36.853Z,102028.03
2023-03-03T04:49:40.169Z,102022.69
2023-03-03T04:54:43.137Z,102019.38
2023-03-03T04:59:47.608Z,102022.91
2023-03-03T05:04:50.486Z,102034.19
2023-03-03T05:09:53.402Z,102027.53
2023-03-03T05:14:57.517Z,102032.13
2023-03-03T05:20:00.332Z,102032.50
2023-03-03T05:25:03.055Z,102036.22
2023-03-03T05:30:08.612Z,102029.81
2023-03-03T05:35:11.577Z,102035.81
2023-03-03T05:40:15.317Z,102032.50
2023-03-03T05:45:21.263Z,102044.31
2023-03-03T05:50:24.875Z,102043.00
2023-03-03T05:55:27.662Z,102048.28
2023-03-03T06:00:31.787Z,102041.63
2023-03-03T06:05:34.735Z,102044.88
2023-03-03T06:10:37.535Z,102038.81
2023-03-03T06:15:44.394Z,102044.75
2023-03-03T06:20:47.148Z,102058.84
2023-03-03T06:25:50.444Z,102063.50
2023-03-03T06:30:56.115Z,102075.84
2023-03-03T06:35:58.927Z,102071.59
2023-03-03T06:41:02.496Z,102078.59
2023-03-03T06:46:07.457Z,102078.44
2023-03-03T06:51:23.670Z,102079.16
2023-03-03T06:56:27.666Z,102080.44
2023-03-03T07:01:36.163Z,102092.69
2023-03-03T07:06:39.005Z,102100.38
2023-03-03T07:11:41.834Z,102083.28
2023-03-03T07:16:46.383Z,102098.50
2023-03-03T07:21:49.348Z,102120.44
2023-03-03T07:26:52.683Z,102100.91
2023-03-03T07:31:58.188Z,102113.28
2023-03-03T07:37:06.311Z,102112.19
2023-03-03T07:42:26.163Z,102118.28
2023-03-03T07:47:38.670Z,102107.47
2023-03-03T07:52:42.922Z,102115.28
2023-03-03T07:57:47.114Z,102117.13
2023-03-03T08:02:58.509Z,102117.00
2023-03-03T08:08:17.807Z,102119.84
2023-03-03T08:13:22.389Z,102115.38
2023-03-03T08:18:29.886Z,102119.50
2023-03-03T08:23:32.658Z,102122.03
2023-03-03T08:28:35.425Z,102111.38
2023-03-03T08:33:40.055Z,102104.84
2023-03-03T08:38:42.969Z,102096.81
2023-03-03T08:43:46.085Z,102089.94
2023-03-03T08:48:50.407Z,102085.97
2023-03-03T08:53:53.230Z,102097.00
2023-03-03T08:59:03.482Z,102096.88
2023-03-03T09:04:08.024Z,102102.09
2023-03-03T09:09:10.782Z,102098.03
2023-03-03T09:14:15.052Z,102103.13
2023-03-03T09:19:24.204Z,102101.63
2023-03-03T09:24:28.411Z,102109.59
2023-03-03T09:29:32.947Z,102117.16
2023-03-03T09:34:42.367Z,102130.31
2023-03-03T09:39:47.504Z,102126.38
2023-03-03T09:45:19.516Z,102133.31
2023-03-03T09:50:36.941Z,102125.16
2023-03-03T09:55:48.928Z,102125.50
2023-03-03T10:01:00.496Z,102118.91
2023-03-03T10:06:10.138Z,102129.75
2023-03-03T10:11:21.335Z,102126.41
2023-03-03T10:16:40.890Z,102119.44
2023-03-03T10:21:52.121Z,102106.69
2023-03-03T10:27:14.558Z,102112.50
2023-03-03T10:32:34.062Z,102116.53
2023-03-03T10:37:49.819Z,102107.31
2023-03-03T10:43:13.691Z,102110.75
2023-03-03T10:48:39.920Z,102107.31
2023-03-03T10:53:50.022Z,102102.84
2023-03-03T10:59:04.756Z,102107.50
2023-03-03T11:04:30.338Z,102091.84
2023-03-03T11:09:51.809Z,102094.31
2023-03-03T11:15:12.381Z,102087.94
2023-03-03T11:20:29.549Z,102079.53
2023-03-03T11:25:40.897Z,102073.84
2023-03-03T11:31:03.317Z,102071.84
2023-03-03T11:36:13.480Z,102065.41
2023-03-03T11:41:28.907Z,102061.00
2023-03-03T11:46:37.684Z,102061.66
2023-03-03T11:51:50.145Z,102050.28
2023-03-03T11:56:59.760Z,102045.66
2023-03-03T12:02:12.027Z,102030.78
2023-03-03T12:07:26.520Z,102011.47
2023-03-03T12:12:35.939Z,101998.00
2023-03-03T12:18:03.643Z,101994.38
2023-03-03T12:23:19.750Z,101998.16
2023-03-03T12:28:27.087Z,101985.72
2023-03-03T12:33:40.266Z,101987.03
2023-03-03T12:38:52.025Z,101973.63
2023-03-03T12:44:03.668Z,101967.16
2023-03-03T12:49:06.452Z,101964.84
2023-03-03T12:54:37.480Z,101960.03
2023-03-03T12:59:53.203Z,101953.38
2023-03-03T13:05:01.849Z,101943.97
2023-03-03T13:10:16.462Z,101937.66
2023-03-03T13:15:31.688Z,101933.59
2023-03-03T13:20:45.622Z,101932.53
2023-03-03T13:25:54.148Z,101923.59
2023-03-03T13:31:04.085Z,101918.94
2023-03-03T13:36:10.213Z,101916.97
2023-03-03T13:41:21.732Z,101916.50
2023-03-03T13:46:39.513Z,101909.19
2023-03-03T13:51:48.758Z,101910.66
2023-03-03T13:57:15.391Z,101900.94
2023-03-03T14:02:42.382Z,101912.63
2023-03-03T14:07:53.252Z,101901.13
2023-03-03T14:13:04.434Z,101889.47
2023-03-03T14:18:22.780Z,101875.47
2023-03-03T14:23:32.505Z,101865.16
2023-03-03T14:28:41.228Z,101871.44
2023-03-03T14:33:57.412Z,101868.13
2023-03-03T14:39:00.923Z,101866.56
2023-03-03T14:44:25.022Z,101858.50
2023-03-03T14:49:33.352Z,101852.63
2023-03-03T14:54:40.388Z,101847.97
2023-03-03T14:59:56.867Z,101833.22
2023-03-03T15:05:23.111Z,101843.47
2023-03-03T15:10:34.921Z,101835.81
2023-03-03T15:15:53.701Z,101829.94
2023-03-03T15:21:02.013Z,101822.19
2023-03-03T15:26:10.865Z,101805.16
2023-03-03T15:31:26.198Z,101804.25
2023-03-03T15:36:40.191Z,101804.00
2023-03-03T15:41:45.958Z,101802.22
2023-03-03T15:47:05.611Z,101798.03
2023-03-03T15:52:23.637Z,101799.25
2023-03-03T15:57:42.045Z,101797.59
2023-03-03T16:02:53.727Z,101788.56
2023-03-03T16:08:06.060Z,101787.84
2023-03-03T16:13:23.486Z,101793.56
2023-03-03T16:18:38.857Z,101795.03
2023-03-03T16:23:48.825Z,101795.66
2023-03-03T16:29:08.644Z,101800.13
2023-03-03T16:34:19.360Z,101803.09
2023-03-03T16:39:31.005Z,101802.31
2023-03-03T16:44:43.246Z,101798.41
2023-03-03T16:49:53.352Z,101800.75
2023-03-03T16:55:04.115Z,101804.81
2023-03-03T17:00:13.214Z,101803.78
2023-03-03T17:05:29.170Z,101802.53
2023-03-03T17:10:37.956Z,101813.53
2023-03-03T17:15:49.518Z,101805.97
2023-03-03T17:20:57.346Z,101808.34
2023-03-03T17:26:09.884Z,101818.13
2023-03-03T17:31:22.413Z,101808.09
2023-03-03T17:36:37.215Z,101810.00
2023-03-03T17:41:47.236Z,101805.88
2023-03-03T17:46:54.979Z,101803.78
2023-03-03T17:52:21.252Z,101801.91
2023-03-03T17:57:36.617Z,101795.56
2023-03-03T18:02:54.356Z,101800.50
2023-03-03T18:08:12.672Z,101799.28
2023-03-03T18:13:34.421Z,101794.31
2023-03-03T18:18:55.342Z,101794.28
2023-03-03T18:24:27.775Z,101802.63
2023-03-03T18:29:32.546Z,101813.41
2023-03-03T18:34:38.135Z,101803.41
2023-03-03T18:39:45.585Z,101800.69
2023-03-03T18:44:49.950Z,101789.78
2023-03-03T18:49:59.285Z,101784.63
2023-03-03T18:55:20.834Z,101786.13
2023-03-03T19:00:30.139Z,101782.19
2023-03-03T19:05:47.238Z,101787.81
2023-03-03T19:10:53.514Z,101783.72
2023-03-03T19:15:59.750Z,101786.13
2023-03-03T19:21:05.630Z,101776.72
2023-03-03T19:26:38.164Z,101771.44
2023-03-03T19:31:48.144Z,101772.03
2023-03-03T19:37:12.510Z,101772.06
2023-03-03T19:42:25.999Z,101783.38
2023-03-03T19:47:39.737Z,101771.88
2023-03-03T19:52:47.773Z,101776.81
2023-03-03T19:57:59.833Z,101784.91
2023-03-03T20:03:34.984Z,101775.94
2023-03-03T20:08:44.984Z,101773.41
2023-03-03T20:13:59.667Z,101768.28
2023-03-03T20:19:17.412Z,101770.22
2023-03-03T20:24:42.502Z,101766.75
2023-03-03T20:30:03.351Z,101766.91
2023-03-03T20:35:21.114Z,101761.41
2023-03-03T20:40:34.092Z,101762.59
2023-03-03T20:45:49.779Z,101770.53
2023-03-03T20:51:03.452Z,101764.75
2023-03-03T20:56:14.435Z,101765.34
2023-03-03T21:01:28.336Z,101763.38
2023-03-03T21:06:40.759Z,101754.66
2023-03-03T21:11:44.993Z,101749.63
2023-03-03T21:16:48.086Z,101748.47
2023-03-03T21:21:53.212Z,101753.84
2023-03-03T21:26:57.069Z,101751.50
2023-03-03T21:32:01.222Z,101746.22
2023-03-03T21:37:07.081Z,101736.91
2023-03-03T21:42:12.014Z,101736.31
2023-03-03T21:47:16.353Z,101727.81
2023-03-03T21:52:21.829Z,101729.28
2023-03-03T21:57:25.023Z,101733.00
2023-03-03T22:02:27.820Z,101724.19
2023-03-03T22:07:32.015Z,101719.81
2023-03-03T22:12:34.718Z,101727.53
2023-03-03T22:17:37.474Z,101719.00
2023-03-03T22:22:41.519Z,101726.03
2023-03-03T22:27:44.249Z,101720.69
2023-03-03T22:32:46.983Z,101715.81
2023-03-03T22:37:51.056Z,101706.91
2023-03-03T22:42:53.782Z,101704.88
2023-03-03T22:47:56.542Z,101695.56
2023-03-03T22:53:00.642Z,101699.06
2023-03-03T22:58:03.710Z,101707.56
2023-03-03T23:03:06.940Z,101697.19
2023-03-03T23:08:14.904Z,101691.88
2023-03-03T23:13:17.857Z,101690.25
2023-03-03T23:18:20.582Z,101687.97
2023-03-03T23:23:25.344Z,101684.94
2023-03-03T23:28:28.353Z,101687.28
2023-03-03T23:33:31.089Z,101678.50
2023-03-03T23:38:35.186Z,101679.22
2023-03-03T23:43:37.937Z,101666.28
2023-03-03T23:48:40.695Z,101660.00
2023-03-03T23:53:44.778Z,101667.63
2023-03-03T23:58:47.681Z,101669.34
